sensor_id;sensor_type;location;lat;lon;timestamp;temperature;humidity
28546;DHT22;15749;49.606;8.738;2023-03-15T00:00:48;12.80;77.10
28546;DHT22;15749;49.606;8.738;2023-03-15T00:03:18;12.70;76.80
28546;DHT22;15749;49.606;8.738;2023-03-15T00:05:48;12.70;77.00
28546;DHT22;15749;49.606;8.738;2023-03-15T00:08:37;12.70;77.40
28546;DHT22;15749;49.606;8.738;2023-03-15T00:11:25;12.70;78.20
28546;DHT22;15749;49.606;8.738;2023-03-15T00:14:04;12.70;77.70
28546;DHT22;15749;49.606;8.738;2023-03-15T00:16:35;12.70;77.90
28546;DHT22;15749;49.606;8.738;2023-03-15T00:25:45;12.70;78.40
28546;DHT22;15749;49.606;8.738;2023-03-15T00:28:27;12.70;77.00
28546;DHT22;15749;49.606;8.738;2023-03-15T00:31:20;12.70;77.60
28546;DHT22;15749;49.606;8.738;2023-03-15T00:37:38;12.60;78.20
28546;DHT22;15749;49.606;8.738;2023-03-15T00:40:18;12.60;77.40
28546;DHT22;15749;49.606;8.738;2023-03-15T00:42:59;12.60;77.60
28546;DHT22;15749;49.606;8.738;2023-03-15T00:45:30;12.60;76.80
28546;DHT22;15749;49.606;8.738;2023-03-15T00:48:01;12.50;76.70
28546;DHT22;15749;49.606;8.738;2023-03-15T00:50:33;12.50;76.80
28546;DHT22;15749;49.606;8.738;2023-03-15T00:53:03;12.50;76.90
28546;DHT22;15749;49.606;8.738;2023-03-15T00:55:32;12.50;76.80
28546;DHT22;15749;49.606;8.738;2023-03-15T00:58:03;12.40;77.20
28546;DHT22;15749;49.606;8.738;2023-03-15T01:04:48;12.40;78.40
28546;DHT22;15749;49.606;8.738;2023-03-15T01:07:20;12.40;77.20
28546;DHT22;15749;49.606;8.738;2023-03-15T01:09:50;12.40;77.20
28546;DHT22;15749;49.606;8.738;2023-03-15T01:12:19;12.40;77.60
28546;DHT22;15749;49.606;8.738;2023-03-15T01:14:49;12.30;77.60
28546;DHT22;15749;49.606;8.738;2023-03-15T01:17:18;12.30;77.70
28546;DHT22;15749;49.606;8.738;2023-03-15T01:19:48;12.30;77.80
28546;DHT22;15749;49.606;8.738;2023-03-15T01:22:19;12.30;78.10
28546;DHT22;15749;49.606;8.738;2023-03-15T01:24:48;12.30;78.10
28546;DHT22;15749;49.606;8.738;2023-03-15T01:27:18;12.20;78.10
28546;DHT22;15749;49.606;8.738;2023-03-15T01:29:47;12.20;78.10
28546;DHT22;15749;49.606;8.738;2023-03-15T01:32:16;12.20;78.10
28546;DHT22;15749;49.606;8.738;2023-03-15T01:34:49;12.20;79.00
28546;DHT22;15749;49.606;8.738;2023-03-15T01:37:18;12.20;78.40
28546;DHT22;15749;49.606;8.738;2023-03-15T01:39:51;12.10;78.30
28546;DHT22;15749;49.606;8.738;2023-03-15T01:42:22;12.20;78.40
28546;DHT22;15749;49.606;8.738;2023-03-15T01:44:54;12.10;78.40
28546;DHT22;15749;49.606;8.738;2023-03-15T01:47:24;12.10;78.50
28546;DHT22;15749;49.606;8.738;2023-03-15T01:50:00;12.10;78.50
28546;DHT22;15749;49.606;8.738;2023-03-15T01:52:36;12.10;79.40
28546;DHT22;15749;49.606;8.738;2023-03-15T01:55:11;12.10;78.60
28546;DHT22;15749;49.606;8.738;2023-03-15T01:58:05;12.10;78.70
28546;DHT22;15749;49.606;8.738;2023-03-15T02:00:39;12.10;78.50
28546;DHT22;15749;49.606;8.738;2023-03-15T02:03:17;12.10;78.50
28546;DHT22;15749;49.606;8.738;2023-03-15T02:05:55;12.10;78.60
28546;DHT22;15749;49.606;8.738;2023-03-15T02:08:41;12.10;78.70
28546;DHT22;15749;49.606;8.738;2023-03-15T02:11:13;12.00;78.60
28546;DHT22;15749;49.606;8.738;2023-03-15T02:13:49;12.00;78.50
28546;DHT22;15749;49.606;8.738;2023-03-15T02:16:19;12.00;79.20
28546;DHT22;15749;49.606;8.738;2023-03-15T02:18:58;12.00;78.60
28546;DHT22;15749;49.606;8.738;2023-03-15T02:21:38;12.00;78.60
28546;DHT22;15749;49.606;8.738;2023-03-15T02:24:21;12.00;78.90
28546;DHT22;15749;49.606;8.738;2023-03-15T02:26:55;11.90;78.70
28546;DHT22;15749;49.606;8.738;2023-03-15T02:29:27;11.90;78.50
28546;DHT22;15749;49.606;8.738;2023-03-15T02:31:59;11.90;78.60
28546;DHT22;15749;49.606;8.738;2023-03-15T02:34:34;11.90;78.40
28546;DHT22;15749;49.606;8.738;2023-03-15T02:37:03;11.90;79.10
28546;DHT22;15749;49.606;8.738;2023-03-15T02:39:32;11.90;78.50
28546;DHT22;15749;49.606;8.738;2023-03-15T02:42:01;11.80;79.20
28546;DHT22;15749;49.606;8.738;2023-03-15T02:44:33;11.80;78.60
28546;DHT22;15749;49.606;8.738;2023-03-15T02:47:05;11.80;79.50
28546;DHT22;15749;49.606;8.738;2023-03-15T02:49:39;11.80;78.80
28546;DHT22;15749;49.606;8.738;2023-03-15T02:52:13;11.80;78.80
28546;DHT22;15749;49.606;8.738;2023-03-15T02:54:42;11.80;78.70
28546;DHT22;15749;49.606;8.738;2023-03-15T02:57:12;11.70;79.30
28546;DHT22;15749;49.606;8.738;2023-03-15T02:59:44;11.70;78.50
28546;DHT22;15749;49.606;8.738;2023-03-15T03:02:20;11.70;78.60
28546;DHT22;15749;49.606;8.738;2023-03-15T03:04:50;11.70;78.60
28546;DHT22;15749;49.606;8.738;2023-03-15T03:07:20;11.60;78.60
28546;DHT22;15749;49.606;8.738;2023-03-15T03:09:58;11.60;78.50
28546;DHT22;15749;49.606;8.738;2023-03-15T03:12:34;11.60;78.40
28546;DHT22;15749;49.606;8.738;2023-03-15T03:15:06;11.60;78.50
28546;DHT22;15749;49.606;8.738;2023-03-15T03:17:36;11.60;78.70
28546;DHT22;15749;49.606;8.738;2023-03-15T03:20:07;11.60;78.60
28546;DHT22;15749;49.606;8.738;2023-03-15T03:22:44;11.60;78.70
28546;DHT22;15749;49.606;8.738;2023-03-15T03:25:16;11.50;78.70
28546;DHT22;15749;49.606;8.738;2023-03-15T03:27:47;11.50;78.70
28546;DHT22;15749;49.606;8.738;2023-03-15T03:30:17;11.50;78.70
28546;DHT22;15749;49.606;8.738;2023-03-15T03:32:53;11.50;78.80
28546;DHT22;15749;49.606;8.738;2023-03-15T03:35:22;11.50;78.60
28546;DHT22;15749;49.606;8.738;2023-03-15T03:37:51;11.40;79.20
28546;DHT22;15749;49.606;8.738;2023-03-15T03:40:30;11.40;78.40
28546;DHT22;15749;49.606;8.738;2023-03-15T03:43:02;11.40;78.40
28546;DHT22;15749;49.606;8.738;2023-03-15T03:45:32;11.40;78.60
28546;DHT22;15749;49.606;8.738;2023-03-15T03:48:02;11.40;78.70
28546;DHT22;15749;49.606;8.738;2023-03-15T03:50:33;11.30;78.60
28546;DHT22;15749;49.606;8.738;2023-03-15T03:53:02;11.30;78.70
28546;DHT22;15749;49.606;8.738;2023-03-15T03:55:37;11.30;78.80
28546;DHT22;15749;49.606;8.738;2023-03-15T03:58:06;11.30;78.80
28546;DHT22;15749;49.606;8.738;2023-03-15T04:00:52;11.30;78.80
28546;DHT22;15749;49.606;8.738;2023-03-15T04:03:24;11.30;79.00
28546;DHT22;15749;49.606;8.738;2023-03-15T04:06:03;11.30;78.80
28546;DHT22;15749;49.606;8.738;2023-03-15T04:08:37;11.20;78.80
28546;DHT22;15749;49.606;8.738;2023-03-15T04:11:09;11.20;78.70
28546;DHT22;15749;49.606;8.738;2023-03-15T04:13:40;11.20;78.60
28546;DHT22;15749;49.606;8.738;2023-03-15T04:16:11;11.20;78.60
28546;DHT22;15749;49.606;8.738;2023-03-15T04:19:10;11.20;78.70
28546;DHT22;15749;49.606;8.738;2023-03-15T04:21:40;11.20;78.60
28546;DHT22;15749;49.606;8.738;2023-03-15T04:24:31;11.20;78.70
28546;DHT22;15749;49.606;8.738;2023-03-15T04:27:21;11.20;78.70
28546;DHT22;15749;49.606;8.738;2023-03-15T04:30:11;11.10;78.60
28546;DHT22;15749;49.606;8.738;2023-03-15T04:33:20;11.10;78.70
28546;DHT22;15749;49.606;8.738;2023-03-15T04:36:09;11.10;78.90
28546;DHT22;15749;49.606;8.738;2023-03-15T04:39:05;11.10;78.80
28546;DHT22;15749;49.606;8.738;2023-03-15T04:41:44;11.10;78.80
28546;DHT22;15749;49.606;8.738;2023-03-15T04:44:41;11.00;78.70
28546;DHT22;15749;49.606;8.738;2023-03-15T04:47:35;11.10;78.70
28546;DHT22;15749;49.606;8.738;2023-03-15T04:50:40;11.10;78.70
28546;DHT22;15749;49.606;8.738;2023-03-15T04:53:14;11.00;78.70
28546;DHT22;15749;49.606;8.738;2023-03-15T04:55:54;11.00;78.70
28546;DHT22;15749;49.606;8.738;2023-03-15T04:58:23;11.00;78.80
28546;DHT22;15749;49.606;8.738;2023-03-15T05:01:08;11.00;78.90
28546;DHT22;15749;49.606;8.738;2023-03-15T05:03:54;11.00;79.10
28546;DHT22;15749;49.606;8.738;2023-03-15T05:06:50;11.00;79.00
28546;DHT22;15749;49.606;8.738;2023-03-15T05:09:40;10.90;79.50
28546;DHT22;15749;49.606;8.738;2023-03-15T05:12:31;10.90;78.80
28546;DHT22;15749;49.606;8.738;2023-03-15T05:15:16;10.90;78.60
28546;DHT22;15749;49.606;8.738;2023-03-15T05:18:12;10.90;78.70
28546;DHT22;15749;49.606;8.738;2023-03-15T05:21:03;10.80;78.70
28546;DHT22;15749;49.606;8.738;2023-03-15T05:23:44;10.80;78.90
28546;DHT22;15749;49.606;8.738;2023-03-15T05:26:27;10.80;79.00
28546;DHT22;15749;49.606;8.738;2023-03-15T05:29:20;10.80;79.00
28546;DHT22;15749;49.606;8.738;2023-03-15T05:32:10;10.80;79.10
28546;DHT22;15749;49.606;8.738;2023-03-15T05:35:09;10.80;79.10
28546;DHT22;15749;49.606;8.738;2023-03-15T05:37:58;10.80;79.20
28546;DHT22;15749;49.606;8.738;2023-03-15T05:40:47;10.80;79.20
28546;DHT22;15749;49.606;8.738;2023-03-15T05:43:34;10.80;79.30
28546;DHT22;15749;49.606;8.738;2023-03-15T05:46:22;10.70;79.20
28546;DHT22;15749;49.606;8.738;2023-03-15T05:48:54;10.80;79.30
28546;DHT22;15749;49.606;8.738;2023-03-15T05:51:52;10.70;79.40
28546;DHT22;15749;49.606;8.738;2023-03-15T05:54:34;10.70;79.30
28546;DHT22;15749;49.606;8.738;2023-03-15T05:57:08;10.70;79.20
28546;DHT22;15749;49.606;8.738;2023-03-15T06:00:10;10.70;79.20
28546;DHT22;15749;49.606;8.738;2023-03-15T06:02:42;10.70;79.20
28546;DHT22;15749;49.606;8.738;2023-03-15T06:05:40;10.70;79.30
28546;DHT22;15749;49.606;8.738;2023-03-15T06:08:15;10.70;79.30
28546;DHT22;15749;49.606;8.738;2023-03-15T06:10:47;10.70;79.20
28546;DHT22;15749;49.606;8.738;2023-03-15T06:13:17;10.70;79.40
28546;DHT22;15749;49.606;8.738;2023-03-15T06:15:47;10.70;80.20
28546;DHT22;15749;49.606;8.738;2023-03-15T06:18:18;10.60;79.40
28546;DHT22;15749;49.606;8.738;2023-03-15T06:20:49;10.70;79.60
28546;DHT22;15749;49.606;8.738;2023-03-15T06:23:19;10.60;80.20
28546;DHT22;15749;49.606;8.738;2023-03-15T06:25:49;10.60;79.60
28546;DHT22;15749;49.606;8.738;2023-03-15T06:28:21;10.70;79.40
28546;DHT22;15749;49.606;8.738;2023-03-15T06:30:55;10.70;79.30
28546;DHT22;15749;49.606;8.738;2023-03-15T06:33:32;10.60;79.20
28546;DHT22;15749;49.606;8.738;2023-03-15T06:36:01;10.60;79.30
28546;DHT22;15749;49.606;8.738;2023-03-15T06:38:30;10.70;79.40
28546;DHT22;15749;49.606;8.738;2023-03-15T06:41:00;10.70;79.60
28546;DHT22;15749;49.606;8.738;2023-03-15T06:43:30;10.70;79.60
28546;DHT22;15749;49.606;8.738;2023-03-15T06:46:00;10.60;79.60
28546;DHT22;15749;49.606;8.738;2023-03-15T06:48:31;10.60;79.50
28546;DHT22;15749;49.606;8.738;2023-03-15T06:51:01;10.60;79.40
28546;DHT22;15749;49.606;8.738;2023-03-15T06:53:32;10.60;79.40
28546;DHT22;15749;49.606;8.738;2023-03-15T06:56:01;10.60;79.40
28546;DHT22;15749;49.606;8.738;2023-03-15T06:58:31;10.60;79.50
28546;DHT22;15749;49.606;8.738;2023-03-15T07:01:00;10.70;79.50
28546;DHT22;15749;49.606;8.738;2023-03-15T07:03:29;10.60;79.50
28546;DHT22;15749;49.606;8.738;2023-03-15T07:05:58;10.60;79.40
28546;DHT22;15749;49.606;8.738;2023-03-15T07:08:28;10.60;79.40
28546;DHT22;15749;49.606;8.738;2023-03-15T07:10:57;10.60;79.40
28546;DHT22;15749;49.606;8.738;2023-03-15T07:13:26;10.60;79.40
28546;DHT22;15749;49.606;8.738;2023-03-15T07:15:56;10.60;79.50
28546;DHT22;15749;49.606;8.738;2023-03-15T07:18:25;10.60;79.40
28546;DHT22;15749;49.606;8.738;2023-03-15T07:20:56;10.60;79.20
28546;DHT22;15749;49.606;8.738;2023-03-15T07:23:29;10.60;79.20
28546;DHT22;15749;49.606;8.738;2023-03-15T07:25:58;10.60;79.20
28546;DHT22;15749;49.606;8.738;2023-03-15T07:28:30;10.60;79.20
28546;DHT22;15749;49.606;8.738;2023-03-15T07:31:02;10.60;79.10
28546;DHT22;15749;49.606;8.738;2023-03-15T07:33:33;10.60;79.30
28546;DHT22;15749;49.606;8.738;2023-03-15T07:36:05;10.60;79.40
28546;DHT22;15749;49.606;8.738;2023-03-15T07:38:37;10.60;79.40
28546;DHT22;15749;49.606;8.738;2023-03-15T07:41:09;10.60;79.20
28546;DHT22;15749;49.606;8.738;2023-03-15T07:43:45;10.60;79.00
28546;DHT22;15749;49.606;8.738;2023-03-15T07:46:18;10.70;79.20
28546;DHT22;15749;49.606;8.738;2023-03-15T07:48:47;10.50;79.20
28546;DHT22;15749;49.606;8.738;2023-03-15T07:51:16;10.50;79.20
28546;DHT22;15749;49.606;8.738;2023-03-15T07:53:45;10.50;79.30
28546;DHT22;15749;49.606;8.738;2023-03-15T07:56:15;10.50;79.30
28546;DHT22;15749;49.606;8.738;2023-03-15T07:58:45;10.50;79.40
28546;DHT22;15749;49.606;8.738;2023-03-15T08:01:17;10.50;79.40
28546;DHT22;15749;49.606;8.738;2023-03-15T08:03:46;10.50;79.50
28546;DHT22;15749;49.606;8.738;2023-03-15T08:06:15;10.50;79.60
28546;DHT22;15749;49.606;8.738;2023-03-15T08:08:44;10.40;79.50
28546;DHT22;15749;49.606;8.738;2023-03-15T08:11:13;10.40;79.50
28546;DHT22;15749;49.606;8.738;2023-03-15T08:13:42;10.50;79.60
28546;DHT22;15749;49.606;8.738;2023-03-15T08:16:11;10.40;79.70
28546;DHT22;15749;49.606;8.738;2023-03-15T08:18:42;10.40;79.80
28546;DHT22;15749;49.606;8.738;2023-03-15T08:21:11;10.40;80.00
28546;DHT22;15749;49.606;8.738;2023-03-15T08:23:42;10.40;80.00
28546;DHT22;15749;49.606;8.738;2023-03-15T08:26:11;10.40;79.90
28546;DHT22;15749;49.606;8.738;2023-03-15T08:28:40;10.40;80.00
28546;DHT22;15749;49.606;8.738;2023-03-15T08:31:10;10.40;80.70
28546;DHT22;15749;49.606;8.738;2023-03-15T08:33:44;10.50;80.10
28546;DHT22;15749;49.606;8.738;2023-03-15T08:36:16;10.40;80.00
28546;DHT22;15749;49.606;8.738;2023-03-15T08:38:45;10.40;80.00
28546;DHT22;15749;49.606;8.738;2023-03-15T08:41:14;10.40;80.00
28546;DHT22;15749;49.606;8.738;2023-03-15T08:43:43;10.40;80.00
28546;DHT22;15749;49.606;8.738;2023-03-15T08:46:12;10.40;80.00
28546;DHT22;15749;49.606;8.738;2023-03-15T08:48:43;10.40;80.30
28546;DHT22;15749;49.606;8.738;2023-03-15T08:51:12;10.40;79.60
28546;DHT22;15749;49.606;8.738;2023-03-15T08:53:41;10.40;79.40
28546;DHT22;15749;49.606;8.738;2023-03-15T08:56:10;10.40;79.30
28546;DHT22;15749;49.606;8.738;2023-03-15T08:58:39;10.30;80.10
28546;DHT22;15749;49.606;8.738;2023-03-15T09:01:10;10.30;79.50
28546;DHT22;15749;49.606;8.738;2023-03-15T09:03:39;10.30;79.60
28546;DHT22;15749;49.606;8.738;2023-03-15T09:06:10;10.30;79.50
28546;DHT22;15749;49.606;8.738;2023-03-15T09:08:40;10.20;79.60
28546;DHT22;15749;49.606;8.738;2023-03-15T09:11:09;10.20;80.40
28546;DHT22;15749;49.606;8.738;2023-03-15T09:13:38;10.20;79.80
28546;DHT22;15749;49.606;8.738;2023-03-15T09:16:07;10.20;79.70
28546;DHT22;15749;49.606;8.738;2023-03-15T09:18:36;10.20;79.80
28546;DHT22;15749;49.606;8.738;2023-03-15T09:21:07;10.20;79.80
28546;DHT22;15749;49.606;8.738;2023-03-15T09:23:37;10.20;79.80
28546;DHT22;15749;49.606;8.738;2023-03-15T09:26:09;10.10;79.80
28546;DHT22;15749;49.606;8.738;2023-03-15T09:28:38;10.10;79.80
28546;DHT22;15749;49.606;8.738;2023-03-15T09:31:07;10.10;79.80
28546;DHT22;15749;49.606;8.738;2023-03-15T09:33:36;10.10;79.90
28546;DHT22;15749;49.606;8.738;2023-03-15T09:36:05;10.10;80.00
28546;DHT22;15749;49.606;8.738;2023-03-15T09:38:34;10.10;80.10
28546;DHT22;15749;49.606;8.738;2023-03-15T09:41:15;10.10;80.20
28546;DHT22;15749;49.606;8.738;2023-03-15T09:44:08;10.00;80.60
28546;DHT22;15749;49.606;8.738;2023-03-15T09:46:48;10.10;81.10
28546;DHT22;15749;49.606;8.738;2023-03-15T09:49:33;10.10;80.60
28546;DHT22;15749;49.606;8.738;2023-03-15T09:52:16;10.10;80.80
28546;DHT22;15749;49.606;8.738;2023-03-15T09:54:57;10.10;80.70
28546;DHT22;15749;49.606;8.738;2023-03-15T09:57:35;10.10;80.70
28546;DHT22;15749;49.606;8.738;2023-03-15T10:00:13;10.10;80.90
28546;DHT22;15749;49.606;8.738;2023-03-15T10:02:50;10.10;80.90
28546;DHT22;15749;49.606;8.738;2023-03-15T10:05:32;10.10;81.70
28546;DHT22;15749;49.606;8.738;2023-03-15T10:08:09;10.10;81.10
28546;DHT22;15749;49.606;8.738;2023-03-15T10:10:50;10.10;81.10
28546;DHT22;15749;49.606;8.738;2023-03-15T10:13:41;10.10;81.30
28546;DHT22;15749;49.606;8.738;2023-03-15T10:16:27;10.10;81.50
28546;DHT22;15749;49.606;8.738;2023-03-15T10:19:20;10.10;82.10
28546;DHT22;15749;49.606;8.738;2023-03-15T10:21:56;10.20;81.40
28546;DHT22;15749;49.606;8.738;2023-03-15T10:24:35;10.20;81.20
28546;DHT22;15749;49.606;8.738;2023-03-15T10:27:14;10.20;81.50
28546;DHT22;15749;49.606;8.738;2023-03-15T10:29:48;10.20;81.50
28546;DHT22;15749;49.606;8.738;2023-03-15T10:32:21;10.20;81.30
28546;DHT22;15749;49.606;8.738;2023-03-15T10:34:56;10.20;81.40
28546;DHT22;15749;49.606;8.738;2023-03-15T10:37:25;10.20;82.10
28546;DHT22;15749;49.606;8.738;2023-03-15T10:39:57;10.20;81.40
28546;DHT22;15749;49.606;8.738;2023-03-15T10:42:30;10.20;81.40
28546;DHT22;15749;49.606;8.738;2023-03-15T10:45:18;10.30;81.50
28546;DHT22;15749;49.606;8.738;2023-03-15T10:47:49;10.30;81.80
28546;DHT22;15749;49.606;8.738;2023-03-15T10:50:28;10.30;81.40
28546;DHT22;15749;49.606;8.738;2023-03-15T10:53:00;10.40;81.60
28546;DHT22;15749;49.606;8.738;2023-03-15T10:55:31;10.30;81.50
28546;DHT22;15749;49.606;8.738;2023-03-15T10:58:19;10.40;81.50
28546;DHT22;15749;49.606;8.738;2023-03-15T11:00:59;10.40;82.50
28546;DHT22;15749;49.606;8.738;2023-03-15T11:03:29;10.50;81.50
28546;DHT22;15749;49.606;8.738;2023-03-15T11:05:59;10.40;82.00
28546;DHT22;15749;49.606;8.738;2023-03-15T11:08:37;10.40;81.40
28546;DHT22;15749;49.606;8.738;2023-03-15T11:11:07;10.40;81.60
28546;DHT22;15749;49.606;8.738;2023-03-15T11:13:38;10.40;81.40
28546;DHT22;15749;49.606;8.738;2023-03-15T11:16:20;10.50;81.70
28546;DHT22;15749;49.606;8.738;2023-03-15T11:18:51;10.50;82.00
28546;DHT22;15749;49.606;8.738;2023-03-15T11:21:30;10.60;81.90
28546;DHT22;15749;49.606;8.738;2023-03-15T11:24:03;10.50;82.00
28546;DHT22;15749;49.606;8.738;2023-03-15T11:26:35;10.60;82.10
28546;DHT22;15749;49.606;8.738;2023-03-15T11:29:22;10.60;82.30
28546;DHT22;15749;49.606;8.738;2023-03-15T11:31:54;10.60;82.70
28546;DHT22;15749;49.606;8.738;2023-03-15T11:34:39;10.80;82.50
28546;DHT22;15749;49.606;8.738;2023-03-15T11:37:14;10.70;82.60
28546;DHT22;15749;49.606;8.738;2023-03-15T11:39:50;10.70;82.60
28546;DHT22;15749;49.606;8.738;2023-03-15T11:42:40;10.80;82.80
28546;DHT22;15749;49.606;8.738;2023-03-15T11:45:19;10.80;83.50
28546;DHT22;15749;49.606;8.738;2023-03-15T11:47:55;10.90;82.80
28546;DHT22;15749;49.606;8.738;2023-03-15T11:50:26;10.90;82.90
28546;DHT22;15749;49.606;8.738;2023-03-15T11:52:56;10.90;82.70
28546;DHT22;15749;49.606;8.738;2023-03-15T11:55:31;10.90;82.90
28546;DHT22;15749;49.606;8.738;2023-03-15T11:58:26;10.90;83.10
28546;DHT22;15749;49.606;8.738;2023-03-15T12:01:02;11.00;83.60
28546;DHT22;15749;49.606;8.738;2023-03-15T12:03:37;11.00;83.40
28546;DHT22;15749;49.606;8.738;2023-03-15T12:09:37;11.10;83.60
28546;DHT22;15749;49.606;8.738;2023-03-15T12:12:36;11.10;83.70
28546;DHT22;15749;49.606;8.738;2023-03-15T12:21:13;11.40;83.60
28546;DHT22;15749;49.606;8.738;2023-03-15T12:23:57;11.30;83.20
28546;DHT22;15749;49.606;8.738;2023-03-15T12:26:39;11.30;83.20
28546;DHT22;15749;49.606;8.738;2023-03-15T12:29:27;11.40;83.30
28546;DHT22;15749;49.606;8.738;2023-03-15T12:32:06;11.50;83.60
28546;DHT22;15749;49.606;8.738;2023-03-15T12:34:46;11.40;83.30
28546;DHT22;15749;49.606;8.738;2023-03-15T12:37:41;11.50;83.30
28546;DHT22;15749;49.606;8.738;2023-03-15T12:40:38;11.50;83.20
28546;DHT22;15749;49.606;8.738;2023-03-15T12:43:34;11.50;83.40
28546;DHT22;15749;49.606;8.738;2023-03-15T12:46:05;11.60;83.40
28546;DHT22;15749;49.606;8.738;2023-03-15T12:48:34;11.60;83.20
28546;DHT22;15749;49.606;8.738;2023-03-15T12:51:10;11.60;83.10
28546;DHT22;15749;49.606;8.738;2023-03-15T12:53:47;11.60;84.10
28546;DHT22;15749;49.606;8.738;2023-03-15T12:56:47;11.70;83.40
28546;DHT22;15749;49.606;8.738;2023-03-15T12:59:24;11.70;83.60
28546;DHT22;15749;49.606;8.738;2023-03-15T13:02:02;11.70;83.30
28546;DHT22;15749;49.606;8.738;2023-03-15T13:04:39;11.80;83.30
28546;DHT22;15749;49.606;8.738;2023-03-15T13:07:29;11.80;83.10
28546;DHT22;15749;49.606;8.738;2023-03-15T13:10:35;11.80;83.20
28546;DHT22;15749;49.606;8.738;2023-03-15T13:13:14;11.80;82.90
28546;DHT22;15749;49.606;8.738;2023-03-15T13:16:00;11.80;82.40
28546;DHT22;15749;49.606;8.738;2023-03-15T13:18:43;11.80;82.40
28546;DHT22;15749;49.606;8.738;2023-03-15T13:21:20;11.80;82.40
28546;DHT22;15749;49.606;8.738;2023-03-15T13:23:57;11.80;82.90
28546;DHT22;15749;49.606;8.738;2023-03-15T13:26:49;11.80;82.20
28546;DHT22;15749;49.606;8.738;2023-03-15T13:29:28;11.80;82.50
28546;DHT22;15749;49.606;8.738;2023-03-15T13:32:11;11.70;82.10
28546;DHT22;15749;49.606;8.738;2023-03-15T13:34:44;11.70;82.00
28546;DHT22;15749;49.606;8.738;2023-03-15T13:37:19;11.70;81.80
28546;DHT22;15749;49.606;8.738;2023-03-15T13:39:59;11.70;82.00
28546;DHT22;15749;49.606;8.738;2023-03-15T13:42:30;11.70;82.30
28546;DHT22;15749;49.606;8.738;2023-03-15T13:45:11;11.70;82.10
28546;DHT22;15749;49.606;8.738;2023-03-15T13:47:43;11.70;82.70
28546;DHT22;15749;49.606;8.738;2023-03-15T13:50:17;11.70;82.50
28546;DHT22;15749;49.606;8.738;2023-03-15T13:52:49;11.70;82.50
28546;DHT22;15749;49.606;8.738;2023-03-15T13:55:22;11.70;82.50
28546;DHT22;15749;49.606;8.738;2023-03-15T13:57:55;11.70;82.30
28546;DHT22;15749;49.606;8.738;2023-03-15T14:00:35;11.70;82.20
28546;DHT22;15749;49.606;8.738;2023-03-15T14:03:12;11.70;82.50
28546;DHT22;15749;49.606;8.738;2023-03-15T14:05:48;11.70;82.40
28546;DHT22;15749;49.606;8.738;2023-03-15T14:08:27;11.70;82.60
28546;DHT22;15749;49.606;8.738;2023-03-15T14:11:03;11.70;82.80
28546;DHT22;15749;49.606;8.738;2023-03-15T14:13:48;11.70;82.80
28546;DHT22;15749;49.606;8.738;2023-03-15T14:16:31;11.70;82.80
28546;DHT22;15749;49.606;8.738;2023-03-15T14:19:30;11.70;82.70
28546;DHT22;15749;49.606;8.738;2023-03-15T14:22:12;11.70;82.30
28546;DHT22;15749;49.606;8.738;2023-03-15T14:24:53;11.80;82.50
28546;DHT22;15749;49.606;8.738;2023-03-15T14:27:28;11.70;82.20
28546;DHT22;15749;49.606;8.738;2023-03-15T14:30:25;11.70;82.40
28546;DHT22;15749;49.606;8.738;2023-03-15T14:33:25;11.70;82.50
28546;DHT22;15749;49.606;8.738;2023-03-15T14:36:41;11.70;82.70
28546;DHT22;15749;49.606;8.738;2023-03-15T14:39:17;11.70;82.50
28546;DHT22;15749;49.606;8.738;2023-03-15T14:41:48;11.70;82.70
28546;DHT22;15749;49.606;8.738;2023-03-15T14:44:19;11.70;82.60
28546;DHT22;15749;49.606;8.738;2023-03-15T14:46:48;11.70;82.80
28546;DHT22;15749;49.606;8.738;2023-03-15T14:49:22;11.70;82.80
28546;DHT22;15749;49.606;8.738;2023-03-15T14:51:57;11.70;82.80
28546;DHT22;15749;49.606;8.738;2023-03-15T14:54:29;11.70;82.80
28546;DHT22;15749;49.606;8.738;2023-03-15T14:57:00;11.70;82.70
28546;DHT22;15749;49.606;8.738;2023-03-15T14:59:31;11.70;82.70
28546;DHT22;15749;49.606;8.738;2023-03-15T15:02:04;11.70;82.80
28546;DHT22;15749;49.606;8.738;2023-03-15T15:04:38;11.70;82.50
28546;DHT22;15749;49.606;8.738;2023-03-15T15:07:10;11.70;82.20
28546;DHT22;15749;49.606;8.738;2023-03-15T15:09:43;11.70;83.30
28546;DHT22;15749;49.606;8.738;2023-03-15T15:12:15;11.70;83.50
28546;DHT22;15749;49.606;8.738;2023-03-15T15:14:47;11.70;83.40
28546;DHT22;15749;49.606;8.738;2023-03-15T15:17:16;11.70;83.60
28546;DHT22;15749;49.606;8.738;2023-03-15T15:19:46;11.70;83.60
28546;DHT22;15749;49.606;8.738;2023-03-15T15:22:22;11.70;83.60
28546;DHT22;15749;49.606;8.738;2023-03-15T15:24:51;11.80;84.00
28546;DHT22;15749;49.606;8.738;2023-03-15T15:27:21;11.70;83.90
28546;DHT22;15749;49.606;8.738;2023-03-15T15:29:51;11.80;84.00
28546;DHT22;15749;49.606;8.738;2023-03-15T15:32:21;11.80;84.00
28546;DHT22;15749;49.606;8.738;2023-03-15T15:34:51;11.80;84.00
28546;DHT22;15749;49.606;8.738;2023-03-15T15:37:21;11.80;84.10
28546;DHT22;15749;49.606;8.738;2023-03-15T15:39:51;11.80;84.10
28546;DHT22;15749;49.606;8.738;2023-03-15T15:42:20;11.80;84.10
28546;DHT22;15749;49.606;8.738;2023-03-15T15:44:51;11.80;84.10
28546;DHT22;15749;49.606;8.738;2023-03-15T15:47:21;11.80;84.10
28546;DHT22;15749;49.606;8.738;2023-03-15T15:49:50;11.90;84.20
28546;DHT22;15749;49.606;8.738;2023-03-15T15:52:20;11.90;84.30
28546;DHT22;15749;49.606;8.738;2023-03-15T15:54:49;11.90;84.20
28546;DHT22;15749;49.606;8.738;2023-03-15T15:57:20;11.90;84.10
28546;DHT22;15749;49.606;8.738;2023-03-15T15:59:54;11.90;84.30
28546;DHT22;15749;49.606;8.738;2023-03-15T16:02:24;11.90;84.30
28546;DHT22;15749;49.606;8.738;2023-03-15T16:04:54;11.90;84.10
28546;DHT22;15749;49.606;8.738;2023-03-15T16:07:24;11.90;84.20
28546;DHT22;15749;49.606;8.738;2023-03-15T16:09:57;12.00;84.30
28546;DHT22;15749;49.606;8.738;2023-03-15T16:12:28;12.00;84.40
28546;DHT22;15749;49.606;8.738;2023-03-15T16:15:01;12.00;84.40
28546;DHT22;15749;49.606;8.738;2023-03-15T16:17:30;12.00;84.30
28546;DHT22;15749;49.606;8.738;2023-03-15T16:20:00;12.00;84.30
28546;DHT22;15749;49.606;8.738;2023-03-15T16:22:34;12.00;84.30
28546;DHT22;15749;49.606;8.738;2023-03-15T16:25:08;12.00;84.40
28546;DHT22;15749;49.606;8.738;2023-03-15T16:27:38;12.00;84.40
28546;DHT22;15749;49.606;8.738;2023-03-15T16:30:18;12.00;84.40
28546;DHT22;15749;49.606;8.738;2023-03-15T16:32:49;12.00;84.50
28546;DHT22;15749;49.606;8.738;2023-03-15T16:35:23;12.00;84.30
28546;DHT22;15749;49.606;8.738;2023-03-15T16:37:59;12.00;84.40
28546;DHT22;15749;49.606;8.738;2023-03-15T16:40:31;12.00;84.30
28546;DHT22;15749;49.606;8.738;2023-03-15T16:43:01;12.10;84.30
28546;DHT22;15749;49.606;8.738;2023-03-15T16:45:34;12.10;84.30
28546;DHT22;15749;49.606;8.738;2023-03-15T16:48:04;12.10;84.30